Time;durP1;ratioP1;P1;durP2;ratioP2;P2;SDS_P1;SDS_P2;PMS_P1;PMS_P2;Temp;Humidity;BMP_temperature;BMP_pressure;BME280_temperature;BME280_humidity;BME280_pressure;Samples;Min_cycle;Max_cycle;Signal;HPM_P1;HPM_P2
2021/10/29 00:02:06;;;;;;;;;;;14.70;99.90;;;;;;6183543;23;19900;-89
2021/10/29 00:04:32;;;;;;;;;;;14.70;99.90;;;;;;6183494;23;19907;-88
2021/10/29 00:06:57;;;;;;;;;;;14.80;99.90;;;;;;6183649;23;19923;-89
2021/10/29 00:09:23;;;;;;;;;;;14.80;99.90;;;;;;6181712;23;19906;-89
2021/10/29 00:11:48;;;;;;;;;;;14.70;99.90;;;;;;6181331;23;19908;-87
2021/10/29 00:14:14;;;;;;;;;;;14.70;99.90;;;;;;6182613;23;20026;-89
2021/10/29 00:16:39;;;;;;;;;;;14.70;99.90;;;;;;6183072;23;20317;-89
2021/10/29 00:19:05;;;;;;;;;;;14.70;99.90;;;;;;6183032;23;20329;-89
2021/10/29 00:21:30;;;;;;;;;;;14.70;99.90;;;;;;6182730;23;19971;-89
2021/10/29 00:23:56;;;;;;;;;;;14.60;99.90;;;;;;6184698;23;19947;-87
2021/10/29 00:26:22;;;;;;;;;;;14.60;99.90;;;;;;6184815;23;19916;-89
2021/10/29 00:28:48;;;;;;;;;;;14.60;99.90;;;;;;6184998;23;19904;-87
2021/10/29 00:31:14;;;;;;;;;;;14.60;99.90;;;;;;6183752;23;20401;-88
2021/10/29 00:33:39;;;;;;;;;;;14.70;99.90;;;;;;6185461;23;19923;-89
2021/10/29 00:36:05;;;;;;;;;;;14.70;99.90;;;;;;6185521;23;19900;-89
2021/10/29 00:38:31;;;;;;;;;;;14.70;99.90;;;;;;6185287;23;19900;-89
2021/10/29 00:40:56;;;;;;;;;;;14.60;99.90;;;;;;6185519;23;19900;-89
2021/10/29 00:43:22;;;;;;;;;;;14.60;99.90;;;;;;6184989;23;19900;-89
2021/10/29 00:45:48;;;;;;;;;;;14.60;99.90;;;;;;6184917;23;19979;-89
2021/10/29 00:48:13;;;;;;;;;;;14.70;99.90;;;;;;6184462;23;19954;-87
2021/10/29 00:50:39;;;;;;;;;;;14.70;99.90;;;;;;6182835;23;19908;-88
2021/10/29 00:53:05;;;;;;;;;;;14.70;99.90;;;;;;6182856;23;20230;-87
2021/10/29 00:55:31;;;;;;;;;;;14.70;99.90;;;;;;6184408;23;19908;-87
2021/10/29 00:57:57;;;;;;;;;;;14.70;99.90;;;;;;6185356;23;20033;-89
2021/10/29 01:00:23;;;;;;;;;;;14.70;99.90;;;;;;6158507;23;20070;-89
2021/10/29 01:02:48;;;;;;;;;;;14.60;99.90;;;;;;6184974;23;19904;-89
2021/10/29 01:05:14;;;;;;;;;;;14.70;99.90;;;;;;6185148;23;19907;-89
2021/10/29 01:07:40;;;;;;;;;;;14.70;99.90;;;;;;6184816;23;19900;-88
2021/10/29 01:10:05;;;;;;;;;;;14.70;99.90;;;;;;6184981;23;20249;-89
2021/10/29 01:12:31;;;;;;;;;;;14.70;99.90;;;;;;6184716;23;20262;-89
2021/10/29 01:14:57;;;;;;;;;;;14.70;99.90;;;;;;6184680;23;19936;-88
2021/10/29 01:17:24;;;;;;;;;;;14.70;99.90;;;;;;6184493;23;19900;-89
2021/10/29 01:19:50;;;;;;;;;;;14.70;99.90;;;;;;6182462;23;20293;-87
2021/10/29 01:22:16;;;;;;;;;;;14.70;99.90;;;;;;6184516;23;19915;-89
2021/10/29 01:24:41;;;;;;;;;;;14.60;99.90;;;;;;6184164;23;19967;-89
2021/10/29 01:27:10;;;;;;;;;;;14.70;99.90;;;;;;6184224;23;20214;-90
2021/10/29 01:29:36;;;;;;;;;;;14.70;99.90;;;;;;6183640;23;19907;-89
2021/10/29 01:32:03;;;;;;;;;;;14.60;99.90;;;;;;6184135;23;20285;-89
2021/10/29 01:34:29;;;;;;;;;;;14.60;99.90;;;;;;6183470;23;19979;-88
2021/10/29 01:36:55;;;;;;;;;;;14.60;99.90;;;;;;6184084;23;20348;-88
2021/10/29 01:39:20;;;;;;;;;;;14.60;99.90;;;;;;6184385;23;19900;-87
2021/10/29 01:41:46;;;;;;;;;;;14.60;99.90;;;;;;6184559;23;19900;-89
2021/10/29 01:44:13;;;;;;;;;;;14.60;99.90;;;;;;6183949;23;20102;-88
2021/10/29 01:46:39;;;;;;;;;;;14.50;99.90;;;;;;6183873;23;20325;-87
2021/10/29 01:49:05;;;;;;;;;;;14.60;99.90;;;;;;6184134;23;19900;-89
2021/10/29 01:51:30;;;;;;;;;;;14.60;99.90;;;;;;6183802;23;19908;-89
2021/10/29 01:53:56;;;;;;;;;;;14.50;99.90;;;;;;6184035;23;19908;-89
2021/10/29 01:56:22;;;;;;;;;;;14.60;99.90;;;;;;6184178;23;20388;-89
2021/10/29 01:58:48;;;;;;;;;;;14.60;99.90;;;;;;6184192;23;19932;-89
2021/10/29 02:01:13;;;;;;;;;;;14.50;99.90;;;;;;6184776;23;20229;-89
2021/10/29 02:03:39;;;;;;;;;;;14.50;99.90;;;;;;6182982;23;20219;-89
2021/10/29 02:06:04;;;;;;;;;;;14.60;99.90;;;;;;6182628;23;19907;-87
2021/10/29 02:08:31;;;;;;;;;;;14.60;99.90;;;;;;6184589;23;19901;-89
2021/10/29 02:10:57;;;;;;;;;;;14.60;99.90;;;;;;6184439;23;19908;-88
2021/10/29 02:13:23;;;;;;;;;;;14.60;99.90;;;;;;6184431;23;19900;-89
2021/10/29 02:15:48;;;;;;;;;;;14.60;99.90;;;;;;6182843;23;20262;-89
2021/10/29 02:18:14;;;;;;;;;;;14.60;99.90;;;;;;6184533;23;19900;-89
2021/10/29 02:20:39;;;;;;;;;;;14.70;99.90;;;;;;6182831;23;20552;-90
2021/10/29 02:23:05;;;;;;;;;;;14.70;99.90;;;;;;6184017;23;19900;-88
2021/10/29 02:25:31;;;;;;;;;;;14.80;99.90;;;;;;6184023;23;20221;-89
2021/10/29 02:27:56;;;;;;;;;;;14.80;99.90;;;;;;6184656;23;20340;-88
2021/10/29 02:30:22;;;;;;;;;;;14.90;99.90;;;;;;6184167;23;20203;-89
2021/10/29 02:32:47;;;;;;;;;;;15.00;99.90;;;;;;6184224;23;19904;-89
2021/10/29 02:35:13;;;;;;;;;;;15.00;99.90;;;;;;6184202;23;19908;-86
2021/10/29 02:37:38;;;;;;;;;;;15.00;99.90;;;;;;6184214;23;19904;-88
2021/10/29 02:40:04;;;;;;;;;;;15.00;99.90;;;;;;6182458;23;19971;-89
2021/10/29 02:42:30;;;;;;;;;;;14.90;99.90;;;;;;6183835;23;19900;-89
2021/10/29 02:44:55;;;;;;;;;;;14.90;99.90;;;;;;6183039;23;19912;-86
2021/10/29 02:47:21;;;;;;;;;;;14.90;99.90;;;;;;6183923;23;19900;-89
2021/10/29 02:49:47;;;;;;;;;;;14.90;99.90;;;;;;6183365;23;19901;-89
2021/10/29 02:52:13;;;;;;;;;;;14.90;99.90;;;;;;6183310;23;19908;-89
2021/10/29 02:54:38;;;;;;;;;;;14.90;99.90;;;;;;6183537;23;19959;-89
2021/10/29 02:57:04;;;;;;;;;;;14.90;99.90;;;;;;6181738;23;19955;-89
2021/10/29 02:59:29;;;;;;;;;;;14.90;99.90;;;;;;6182971;23;19900;-89
2021/10/29 03:01:55;;;;;;;;;;;14.80;99.90;;;;;;6183835;23;19900;-89
2021/10/29 03:04:20;;;;;;;;;;;14.80;99.90;;;;;;6183167;23;19900;-89
2021/10/29 03:06:46;;;;;;;;;;;14.90;99.90;;;;;;6181664;23;20314;-87
2021/10/29 03:09:12;;;;;;;;;;;14.80;99.90;;;;;;6181776;23;19900;-89
2021/10/29 03:11:37;;;;;;;;;;;14.90;99.90;;;;;;6181464;23;20073;-89
2021/10/29 03:14:03;;;;;;;;;;;14.90;99.90;;;;;;6183378;23;20233;-88
2021/10/29 03:16:28;;;;;;;;;;;14.90;99.90;;;;;;6183153;23;20281;-89
2021/10/29 03:18:54;;;;;;;;;;;14.90;99.90;;;;;;6183123;23;19962;-89
2021/10/29 03:21:20;;;;;;;;;;;14.90;99.90;;;;;;6181409;23;19900;-88
2021/10/29 03:23:45;;;;;;;;;;;14.90;99.90;;;;;;6183170;23;19907;-89
2021/10/29 03:26:11;;;;;;;;;;;14.90;99.90;;;;;;6183222;23;20340;-88
2021/10/29 03:28:37;;;;;;;;;;;15.00;99.90;;;;;;6183173;23;19951;-88
2021/10/29 03:31:02;;;;;;;;;;;14.90;99.90;;;;;;6182919;23;19908;-89
2021/10/29 03:33:35;;;;;;;;;;;15.00;99.90;;;;;;6183083;23;20505;-89
2021/10/29 03:36:00;;;;;;;;;;;14.90;99.90;;;;;;6183075;23;20396;-88
2021/10/29 03:43:29;;;;;;;;;;;15.00;99.90;;;;;;6183520;23;20256;-89
2021/10/29 03:45:58;;;;;;;;;;;15.00;99.90;;;;;;6183808;23;19900;-89
2021/10/29 03:48:56;;;;;;;;;;;15.00;99.90;;;;;;6183902;23;19900;-88
2021/10/29 03:51:17;;;;;;;;;;;14.90;99.90;;;;;;6182882;23;19909;-89
2021/10/29 03:54:47;;;;;;;;;;;14.90;99.90;;;;;;6183723;23;19931;-87
2021/10/29 03:56:42;;;;;;;;;;;14.90;99.90;;;;;;6163456;23;19900;-88
2021/10/29 03:59:09;;;;;;;;;;;14.90;99.90;;;;;;6183271;23;19904;-88
2021/10/29 04:01:35;;;;;;;;;;;15.00;99.90;;;;;;6183185;23;19927;-88
2021/10/29 04:04:01;;;;;;;;;;;15.00;99.90;;;;;;6181273;23;19900;-89
2021/10/29 04:06:26;;;;;;;;;;;15.00;99.90;;;;;;6181378;23;19907;-88
2021/10/29 04:08:52;;;;;;;;;;;15.00;99.90;;;;;;6182838;23;19979;-87
2021/10/29 04:11:22;;;;;;;;;;;15.00;99.90;;;;;;6182633;23;19912;-89
2021/10/29 04:13:47;;;;;;;;;;;15.10;99.90;;;;;;6181319;23;20314;-88
2021/10/29 04:16:14;;;;;;;;;;;15.10;99.90;;;;;;6183652;23;19979;-89
2021/10/29 04:18:39;;;;;;;;;;;15.20;99.90;;;;;;6183754;23;20441;-88
2021/10/29 04:21:05;;;;;;;;;;;15.20;99.90;;;;;;6183513;23;19900;-89
2021/10/29 04:23:31;;;;;;;;;;;15.20;99.90;;;;;;6183752;23;20019;-89
2021/10/29 04:25:56;;;;;;;;;;;15.20;99.90;;;;;;6183605;23;20234;-88
2021/10/29 04:28:22;;;;;;;;;;;15.20;99.90;;;;;;6181901;23;19991;-89
2021/10/29 04:30:48;;;;;;;;;;;15.20;99.90;;;;;;6183887;23;20347;-87
2021/10/29 04:33:15;;;;;;;;;;;15.20;99.90;;;;;;6182252;23;19916;-88
2021/10/29 04:35:43;;;;;;;;;;;15.30;99.90;;;;;;6184280;23;20328;-89
2021/10/29 04:38:09;;;;;;;;;;;15.30;99.90;;;;;;6183744;23;19900;-87
2021/10/29 04:40:36;;;;;;;;;;;15.30;99.90;;;;;;6183674;23;19951;-88
2021/10/29 04:43:02;;;;;;;;;;;15.40;99.90;;;;;;6183575;23;19904;-89
2021/10/29 04:45:27;;;;;;;;;;;15.40;99.90;;;;;;6183394;23;19900;-86
2021/10/29 04:47:53;;;;;;;;;;;15.40;99.90;;;;;;6183286;23;19900;-89
2021/10/29 04:50:19;;;;;;;;;;;15.40;99.90;;;;;;6183602;23;20321;-88
2021/10/29 04:52:45;;;;;;;;;;;15.30;99.90;;;;;;6183761;23;19954;-89
2021/10/29 04:55:13;;;;;;;;;;;15.30;99.90;;;;;;6183678;23;20162;-89
2021/10/29 04:57:39;;;;;;;;;;;15.40;99.90;;;;;;6183845;23;20095;-89
2021/10/29 05:00:05;;;;;;;;;;;15.40;99.90;;;;;;6182775;23;20046;-89
2021/10/29 05:02:31;;;;;;;;;;;15.40;99.90;;;;;;6181012;23;19907;-88
2021/10/29 05:04:57;;;;;;;;;;;15.40;99.90;;;;;;6182503;23;19900;-89
2021/10/29 05:07:23;;;;;;;;;;;15.40;99.90;;;;;;6182615;23;19907;-89
2021/10/29 05:09:48;;;;;;;;;;;15.40;99.90;;;;;;6184093;23;20395;-88
2021/10/29 05:12:14;;;;;;;;;;;15.40;99.90;;;;;;6184380;23;19904;-89
2021/10/29 05:14:39;;;;;;;;;;;15.40;99.90;;;;;;6182509;23;19907;-89
2021/10/29 05:17:05;;;;;;;;;;;15.40;99.90;;;;;;6182614;23;19900;-89
2021/10/29 05:19:30;;;;;;;;;;;15.40;99.90;;;;;;6184270;23;19906;-88
2021/10/29 05:21:56;;;;;;;;;;;15.30;99.90;;;;;;6184330;23;19904;-89
2021/10/29 05:24:22;;;;;;;;;;;15.30;99.90;;;;;;6184227;23;19900;-89
2021/10/29 05:26:47;;;;;;;;;;;15.30;99.90;;;;;;6183975;23;19919;-89
2021/10/29 05:29:13;;;;;;;;;;;15.30;99.90;;;;;;6182588;23;20340;-89
2021/10/29 05:31:38;;;;;;;;;;;15.30;99.90;;;;;;6183909;23;20005;-89
2021/10/29 05:34:04;;;;;;;;;;;15.30;99.90;;;;;;6184530;23;19904;-89
2021/10/29 05:36:30;;;;;;;;;;;15.20;99.90;;;;;;6184122;23;20325;-89
2021/10/29 05:38:55;;;;;;;;;;;15.20;99.90;;;;;;6184091;23;19900;-89
2021/10/29 05:41:21;;;;;;;;;;;15.20;99.90;;;;;;6183763;23;19904;-89
2021/10/29 05:43:46;;;;;;;;;;;15.20;99.90;;;;;;6186035;23;19987;-90
2021/10/29 05:46:12;;;;;;;;;;;15.10;99.90;;;;;;6201001;23;19906;-89
2021/10/29 05:48:38;;;;;;;;;;;15.10;99.90;;;;;;6186702;23;19983;-88
2021/10/29 05:51:09;;;;;;;;;;;15.10;99.90;;;;;;6188417;23;19911;-89
2021/10/29 05:53:41;;;;;;;;;;;15.10;99.90;;;;;;6191808;23;20225;-88
2021/10/29 05:56:06;;;;;;;;;;;15.10;99.90;;;;;;6207491;23;19950;-87
2021/10/29 05:58:35;;;;;;;;;;;15.20;99.90;;;;;;6207668;23;19901;-89
2021/10/29 06:01:01;;;;;;;;;;;15.10;99.90;;;;;;6206988;23;19912;-87
2021/10/29 06:03:26;;;;;;;;;;;15.10;99.90;;;;;;6203662;23;19960;-88
2021/10/29 06:05:52;;;;;;;;;;;15.10;99.90;;;;;;6206557;23;19900;-88
2021/10/29 06:08:18;;;;;;;;;;;15.10;99.90;;;;;;6207116;23;19956;-88
2021/10/29 06:10:44;;;;;;;;;;;15.10;99.90;;;;;;6204290;23;19975;-88
2021/10/29 06:13:09;;;;;;;;;;;15.10;99.90;;;;;;6199065;23;20311;-89
2021/10/29 06:15:36;;;;;;;;;;;15.00;99.90;;;;;;6197624;23;19928;-88
2021/10/29 06:18:02;;;;;;;;;;;15.00;99.90;;;;;;6206635;23;19901;-86
2021/10/29 06:20:28;;;;;;;;;;;15.00;99.90;;;;;;6200406;23;20233;-88
2021/10/29 06:22:56;;;;;;;;;;;15.00;99.90;;;;;;6183533;23;19900;-87
2021/10/29 06:25:25;;;;;;;;;;;15.00;99.90;;;;;;6185974;23;19900;-89
2021/10/29 06:30:44;;;;;;;;;;;14.90;99.90;;;;;;6183834;23;19966;-88
2021/10/29 06:33:11;;;;;;;;;;;15.00;99.90;;;;;;6181768;23;20395;-88
2021/10/29 06:35:38;;;;;;;;;;;15.00;99.90;;;;;;6181890;23;19908;-88
2021/10/29 06:38:04;;;;;;;;;;;15.00;99.90;;;;;;6183458;23;20236;-88
2021/10/29 06:40:31;;;;;;;;;;;15.00;99.90;;;;;;6183537;23;20443;-88
2021/10/29 06:42:59;;;;;;;;;;;15.10;99.90;;;;;;6183524;23;19947;-87
2021/10/29 07:12:38;;;;;;;;;;;15.00;99.90;;;;;;6183198;23;19964;-87
2021/10/29 07:42:24;;;;;;;;;;;15.00;99.90;;;;;;6192524;23;19950;-86
2021/10/29 07:44:50;;;;;;;;;;;15.00;99.90;;;;;;6181781;23;19905;-86
2021/10/29 07:47:15;;;;;;;;;;;15.00;99.90;;;;;;6183443;23;19907;-86
2021/10/29 07:49:41;;;;;;;;;;;15.00;99.90;;;;;;6183772;23;19900;-88
2021/10/29 07:52:06;;;;;;;;;;;15.00;99.90;;;;;;6189667;23;19908;-85
2021/10/29 07:54:32;;;;;;;;;;;14.90;99.90;;;;;;6186646;23;19995;-86
2021/10/29 07:56:58;;;;;;;;;;;14.80;99.90;;;;;;6184732;23;20058;-89
2021/10/29 07:59:25;;;;;;;;;;;14.70;99.90;;;;;;6186795;23;19954;-91
2021/10/29 08:01:50;;;;;;;;;;;14.60;99.90;;;;;;6188526;23;19973;-89
2021/10/29 08:04:18;;;;;;;;;;;14.60;99.90;;;;;;6183795;23;20295;-90
2021/10/29 08:06:44;;;;;;;;;;;14.60;99.90;;;;;;6184089;23;20371;-89
2021/10/29 08:09:10;;;;;;;;;;;14.70;99.90;;;;;;6181515;23;19971;-89
2021/10/29 08:11:36;;;;;;;;;;;14.70;99.90;;;;;;6183341;23;19947;-90
2021/10/29 08:14:02;;;;;;;;;;;14.70;99.90;;;;;;6183218;23;19900;-89
2021/10/29 08:16:27;;;;;;;;;;;14.70;99.90;;;;;;6182202;23;19936;-88
2021/10/29 08:18:53;;;;;;;;;;;14.80;99.90;;;;;;6193206;23;19896;-87
2021/10/29 08:21:18;;;;;;;;;;;14.90;99.90;;;;;;6189998;23;19920;-86
2021/10/29 08:23:44;;;;;;;;;;;15.00;99.90;;;;;;6184573;23;19900;-86
2021/10/29 08:26:13;;;;;;;;;;;15.10;99.90;;;;;;6184326;23;19919;-86
2021/10/29 08:28:40;;;;;;;;;;;15.10;99.90;;;;;;6187267;23;19988;-86
2021/10/29 08:31:06;;;;;;;;;;;15.10;99.90;;;;;;6186101;23;20345;-86
2021/10/29 08:33:32;;;;;;;;;;;15.10;99.90;;;;;;6181846;23;19900;-86
2021/10/29 08:35:58;;;;;;;;;;;15.10;99.90;;;;;;6181973;23;19923;-86
2021/10/29 08:38:24;;;;;;;;;;;15.10;99.90;;;;;;6181928;23;19904;-86
2021/10/29 08:40:50;;;;;;;;;;;15.10;99.90;;;;;;6180981;23;20345;-86
2021/10/29 08:43:16;;;;;;;;;;;15.10;99.90;;;;;;6184751;23;19896;-86
2021/10/29 08:45:42;;;;;;;;;;;15.20;99.90;;;;;;6186826;23;19900;-86
2021/10/29 08:48:08;;;;;;;;;;;15.20;99.90;;;;;;6188082;23;19907;-87
2021/10/29 08:50:34;;;;;;;;;;;15.20;99.90;;;;;;6185230;23;19908;-87
2021/10/29 08:53:01;;;;;;;;;;;15.20;99.90;;;;;;6185023;23;19946;-87
2021/10/29 08:55:28;;;;;;;;;;;15.20;99.90;;;;;;6192329;23;19896;-87
2021/10/29 08:57:55;;;;;;;;;;;15.20;99.90;;;;;;6190209;23;19907;-88
2021/10/29 09:00:23;;;;;;;;;;;15.10;99.90;;;;;;6185324;23;19908;-88
2021/10/29 09:02:57;;;;;;;;;;;15.10;99.90;;;;;;6186322;23;19900;-88
2021/10/29 09:05:28;;;;;;;;;;;15.00;99.90;;;;;;6185877;23;19908;-86
2021/10/29 09:08:08;;;;;;;;;;;15.00;99.90;;;;;;6190725;23;19902;-87
2021/10/29 09:16:44;;;;;;;;;;;14.70;99.90;;;;;;6195157;23;19974;-87
2021/10/29 09:32:59;;;;;;;;;;;14.20;99.90;;;;;;6183620;23;19982;-87
2021/10/29 09:35:26;;;;;;;;;;;13.90;99.90;;;;;;6183161;23;20337;-85
2021/10/29 09:37:54;;;;;;;;;;;13.90;99.90;;;;;;6183082;23;19900;-84
2021/10/29 09:40:23;;;;;;;;;;;13.80;99.90;;;;;;6182724;23;20330;-84
2021/10/29 09:42:51;;;;;;;;;;;13.70;99.90;;;;;;6183448;23;20597;-84
2021/10/29 09:45:18;;;;;;;;;;;13.60;99.90;;;;;;6183462;23;19936;-85
2021/10/29 09:47:50;;;;;;;;;;;13.60;99.90;;;;;;6183338;23;20281;-85
2021/10/29 09:50:26;;;;;;;;;;;13.70;99.90;;;;;;6183493;23;19992;-85
2021/10/29 09:53:02;;;;;;;;;;;13.70;99.90;;;;;;6183903;23;19911;-84
2021/10/29 09:55:47;;;;;;;;;;;13.80;99.90;;;;;;6183292;23;19932;-85
2021/10/29 09:58:14;;;;;;;;;;;13.80;99.90;;;;;;6184078;23;19900;-86
2021/10/29 10:00:41;;;;;;;;;;;13.90;99.90;;;;;;6183442;23;19900;-86
2021/10/29 10:03:07;;;;;;;;;;;14.00;99.90;;;;;;6183482;23;19900;-87
2021/10/29 10:05:33;;;;;;;;;;;14.00;99.90;;;;;;6183599;23;19955;-85
2021/10/29 10:08:00;;;;;;;;;;;14.10;99.90;;;;;;6182049;23;19904;-86
2021/10/29 10:10:26;;;;;;;;;;;14.20;99.90;;;;;;6181488;23;19908;-86
2021/10/29 10:12:52;;;;;;;;;;;14.20;99.90;;;;;;6183543;23;19971;-85
2021/10/29 10:15:19;;;;;;;;;;;14.30;99.90;;;;;;6183105;23;19908;-86
2021/10/29 10:17:45;;;;;;;;;;;14.40;99.90;;;;;;6183834;23;19900;-86
2021/10/29 10:20:11;;;;;;;;;;;14.40;99.90;;;;;;6185095;23;19906;-88
2021/10/29 10:22:39;;;;;;;;;;;14.50;99.90;;;;;;6182787;23;19904;-87
2021/10/29 10:25:09;;;;;;;;;;;14.60;99.90;;;;;;6184433;23;19900;-87
2021/10/29 10:30:23;;;;;;;;;;;14.70;99.90;;;;;;6183674;23;19973;-87
2021/10/29 10:44:17;;;;;;;;;;;14.80;99.90;;;;;;6182748;23;20245;-85
2021/10/29 10:46:47;;;;;;;;;;;14.80;99.90;;;;;;6183341;23;20341;-86
2021/10/29 10:49:17;;;;;;;;;;;14.80;99.90;;;;;;6186511;23;20233;-86
2021/10/29 10:51:53;;;;;;;;;;;14.80;99.90;;;;;;6182434;23;19959;-86
2021/10/29 10:57:15;;;;;;;;;;;15.00;99.90;;;;;;6183244;23;20292;-86
2021/10/29 11:10:30;;;;;;;;;;;15.10;99.90;;;;;;6183104;23;19954;-86
2021/10/29 11:13:07;;;;;;;;;;;15.10;99.90;;;;;;6183132;23;19948;-87
2021/10/29 11:15:32;;;;;;;;;;;15.20;99.90;;;;;;6181451;23;19900;-87
2021/10/29 11:17:58;;;;;;;;;;;15.40;99.90;;;;;;6182048;23;20045;-87
2021/10/29 11:20:38;;;;;;;;;;;15.50;99.90;;;;;;6186229;23;19911;-87
2021/10/29 11:23:06;;;;;;;;;;;15.60;99.90;;;;;;6181418;23;19904;-87
2021/10/29 11:25:48;;;;;;;;;;;15.60;99.90;;;;;;6181075;23;19950;-88
2021/10/29 11:28:14;;;;;;;;;;;15.60;99.90;;;;;;6180955;23;20333;-87
2021/10/29 11:30:41;;;;;;;;;;;15.60;99.90;;;;;;6181040;23;19934;-87
2021/10/29 11:33:07;;;;;;;;;;;15.60;99.90;;;;;;6180672;23;20265;-87
2021/10/29 11:35:33;;;;;;;;;;;15.60;99.90;;;;;;6180351;23;19909;-88
2021/10/29 11:37:59;;;;;;;;;;;15.70;99.90;;;;;;6182121;23;20540;-88
2021/10/29 11:40:27;;;;;;;;;;;15.70;99.90;;;;;;6180277;23;19975;-88
2021/10/29 11:42:56;;;;;;;;;;;15.70;99.90;;;;;;6181949;23;19911;-88
2021/10/29 11:45:32;;;;;;;;;;;15.80;99.90;;;;;;6181806;23;19975;-88
2021/10/29 11:47:57;;;;;;;;;;;15.80;99.90;;;;;;6181493;23;19956;-89
2021/10/29 11:50:24;;;;;;;;;;;15.80;99.90;;;;;;6179407;23;19908;-89
2021/10/29 11:52:49;;;;;;;;;;;15.80;99.90;;;;;;6179153;23;19908;-89
2021/10/29 11:55:39;;;;;;;;;;;15.80;99.90;;;;;;6179436;23;19990;-89
2021/10/29 11:58:40;;;;;;;;;;;15.70;99.90;;;;;;6180220;23;20233;-88
2021/10/29 12:08:37;;;;;;;;;;;15.80;99.90;;;;;;6182702;23;19900;-89
2021/10/29 12:11:05;;;;;;;;;;;15.70;99.90;;;;;;6183024;23;20281;-89
2021/10/29 12:13:33;;;;;;;;;;;15.50;99.90;;;;;;6182410;23;19915;-88
2021/10/29 12:15:58;;;;;;;;;;;15.40;99.90;;;;;;6184000;23;20000;-91
2021/10/29 12:18:36;;;;;;;;;;;15.30;99.90;;;;;;6192442;23;20126;-88
2021/10/29 12:21:02;;;;;;;;;;;15.40;99.90;;;;;;6195425;23;20253;-88
2021/10/29 12:23:29;;;;;;;;;;;15.30;99.90;;;;;;6195296;23;20093;-88
2021/10/29 12:26:03;;;;;;;;;;;15.30;99.90;;;;;;6193598;23;19903;-89
2021/10/29 12:28:37;;;;;;;;;;;15.40;99.90;;;;;;6195366;23;20211;-89
2021/10/29 12:52:54;;;;;;;;;;;15.70;99.90;;;;;;6196468;23;19951;-88
2021/10/29 13:03:37;;;;;;;;;;;15.30;99.90;;;;;;6198119;23;20175;-88
2021/10/29 13:06:03;;;;;;;;;;;15.20;99.90;;;;;;6196007;23;19903;-87
2021/10/29 13:08:29;;;;;;;;;;;15.10;99.90;;;;;;6195370;23;19959;-87
2021/10/29 13:10:56;;;;;;;;;;;15.20;99.90;;;;;;6194712;23;19911;-88
2021/10/29 13:13:29;;;;;;;;;;;15.30;99.90;;;;;;6194643;23;19896;-87
2021/10/29 13:16:01;;;;;;;;;;;15.40;99.90;;;;;;6195419;23;19896;-88
2021/10/29 13:18:36;;;;;;;;;;;15.40;99.90;;;;;;6195471;23;19924;-88
2021/10/29 13:53:21;;;;;;;;;;;15.60;99.90;;;;;;6184172;23;19901;-86
2021/10/29 13:55:57;;;;;;;;;;;15.60;99.90;;;;;;6183770;23;19922;-87
2021/10/29 14:01:21;;;;;;;;;;;15.60;99.90;;;;;;6184939;23;19971;-86
2021/10/29 14:30:36;;;;;;;;;;;15.70;99.90;;;;;;6184609;23;19958;-87
2021/10/29 14:33:17;;;;;;;;;;;15.60;99.90;;;;;;6190062;23;19904;-87
2021/10/29 14:35:45;;;;;;;;;;;15.70;99.90;;;;;;6185908;23;19988;-89
2021/10/29 14:38:34;;;;;;;;;;;15.60;99.90;;;;;;6183889;23;19904;-88
2021/10/29 14:41:11;;;;;;;;;;;15.50;99.90;;;;;;6182735;23;20214;-89
2021/10/29 14:43:48;;;;;;;;;;;15.50;99.90;;;;;;6184905;23;19912;-88
2021/10/29 14:49:07;;;;;;;;;;;15.40;99.90;;;;;;6187717;23;19900;-89
2021/10/29 15:26:30;;;;;;;;;;;15.40;99.90;;;;;;6191055;23;19920;-88
2021/10/29 15:29:21;;;;;;;;;;;15.40;99.90;;;;;;6184947;23;19930;-88
2021/10/29 15:42:49;;;;;;;;;;;15.40;99.90;;;;;;6183316;23;20020;-88
2021/10/29 15:45:36;;;;;;;;;;;15.40;99.90;;;;;;6182981;23;19979;-89
2021/10/29 15:50:33;;;;;;;;;;;15.30;99.90;;;;;;6183194;23;19907;-88
2021/10/29 15:52:59;;;;;;;;;;;15.20;99.90;;;;;;6188207;23;19900;-88
2021/10/29 15:55:49;;;;;;;;;;;15.10;99.90;;;;;;6187579;23;20270;-88
2021/10/29 16:00:54;;;;;;;;;;;15.00;99.90;;;;;;6182929;23;19972;-90
2021/10/29 16:17:03;;;;;;;;;;;14.60;99.90;;;;;;6183513;23;19907;-91
2021/10/29 16:19:29;;;;;;;;;;;14.60;99.90;;;;;;6183492;23;19904;-91
2021/10/29 16:21:55;;;;;;;;;;;14.50;99.90;;;;;;6186808;23;19896;-93
2021/10/29 16:24:21;;;;;;;;;;;14.50;99.90;;;;;;6186459;23;19901;-90
2021/10/29 16:26:48;;;;;;;;;;;14.50;99.90;;;;;;6181830;23;19912;-88
2021/10/29 16:29:19;;;;;;;;;;;14.50;99.90;;;;;;6186439;23;19896;-88
2021/10/29 16:31:46;;;;;;;;;;;14.50;99.90;;;;;;6181847;23;19948;-88
2021/10/29 16:34:12;;;;;;;;;;;14.50;99.90;;;;;;6182099;23;19900;-87
2021/10/29 16:36:37;;;;;;;;;;;14.50;99.90;;;;;;6182835;23;20246;-89
2021/10/29 16:39:04;;;;;;;;;;;14.50;99.90;;;;;;6182876;23;20241;-89
2021/10/29 16:41:29;;;;;;;;;;;14.50;99.90;;;;;;6181063;23;19904;-88
2021/10/29 16:43:55;;;;;;;;;;;14.50;99.90;;;;;;6182749;23;19907;-88
2021/10/29 16:46:21;;;;;;;;;;;14.50;99.90;;;;;;6182529;23;20222;-88
2021/10/29 16:48:46;;;;;;;;;;;14.60;99.90;;;;;;6182853;23;19907;-88
2021/10/29 16:51:15;;;;;;;;;;;14.50;99.90;;;;;;6182727;23;19994;-88
2021/10/29 16:53:44;;;;;;;;;;;14.60;99.90;;;;;;6183438;23;19967;-88
2021/10/29 16:56:12;;;;;;;;;;;14.50;99.90;;;;;;6182814;23;19979;-88
2021/10/29 16:58:37;;;;;;;;;;;14.50;99.90;;;;;;6180511;23;19950;-88
2021/10/29 17:01:03;;;;;;;;;;;14.50;99.90;;;;;;6182381;23;20333;-89
2021/10/29 17:03:28;;;;;;;;;;;14.50;99.90;;;;;;6185830;23;19924;-88
2021/10/29 17:05:58;;;;;;;;;;;14.60;99.90;;;;;;6184302;23;19900;-88
2021/10/29 17:08:24;;;;;;;;;;;14.70;99.90;;;;;;6183794;23;19900;-88
2021/10/29 17:10:50;;;;;;;;;;;14.70;99.90;;;;;;6184598;23;19908;-88
2021/10/29 17:13:16;;;;;;;;;;;14.70;99.90;;;;;;6190295;23;19918;-88
2021/10/29 17:15:41;;;;;;;;;;;14.70;99.90;;;;;;6183813;23;19900;-88
2021/10/29 17:18:08;;;;;;;;;;;14.70;99.90;;;;;;6183944;23;19907;-88
2021/10/29 17:20:33;;;;;;;;;;;14.80;99.90;;;;;;6182255;23;19977;-88
2021/10/29 17:22:59;;;;;;;;;;;14.80;99.90;;;;;;6183672;23;19911;-88
2021/10/29 17:25:25;;;;;;;;;;;14.80;99.90;;;;;;6184177;23;19907;-88
2021/10/29 17:27:50;;;;;;;;;;;14.80;99.90;;;;;;6157312;23;20326;-88
2021/10/29 17:30:16;;;;;;;;;;;14.70;99.90;;;;;;6182749;23;19900;-89
2021/10/29 17:32:43;;;;;;;;;;;14.70;99.90;;;;;;6182038;23;19901;-88
2021/10/29 17:35:08;;;;;;;;;;;14.70;99.90;;;;;;6183377;23;19900;-88
2021/10/29 17:37:34;;;;;;;;;;;14.60;99.90;;;;;;6181975;23;19908;-87
2021/10/29 17:40:00;;;;;;;;;;;14.60;99.90;;;;;;6184609;23;19939;-86
2021/10/29 17:42:27;;;;;;;;;;;14.60;99.90;;;;;;6184850;23;19900;-85
2021/10/29 17:44:53;;;;;;;;;;;14.60;99.90;;;;;;6187639;23;19949;-86
2021/10/29 17:47:18;;;;;;;;;;;14.70;99.90;;;;;;6185729;23;19896;-86
2021/10/29 17:49:44;;;;;;;;;;;14.70;99.90;;;;;;6187220;23;19971;-85
2021/10/29 17:52:10;;;;;;;;;;;14.80;99.90;;;;;;6183678;23;19962;-85
2021/10/29 17:54:37;;;;;;;;;;;14.80;99.90;;;;;;6182012;23;19927;-86
2021/10/29 17:57:06;;;;;;;;;;;14.80;99.90;;;;;;6186644;23;19986;-86
2021/10/29 17:59:31;;;;;;;;;;;14.80;99.90;;;;;;6184772;23;19900;-86
2021/10/29 18:01:57;;;;;;;;;;;14.70;99.90;;;;;;6182839;23;19927;-85
2021/10/29 18:04:23;;;;;;;;;;;14.60;99.90;;;;;;6183288;23;19950;-85
2021/10/29 18:06:48;;;;;;;;;;;14.60;99.90;;;;;;6183602;23;19931;-86
2021/10/29 18:09:14;;;;;;;;;;;14.60;99.90;;;;;;6182932;23;19901;-86
2021/10/29 18:11:39;;;;;;;;;;;14.50;99.90;;;;;;6183210;23;19908;-86
2021/10/29 18:14:05;;;;;;;;;;;14.50;99.90;;;;;;6181536;23;19982;-86
2021/10/29 18:16:33;;;;;;;;;;;14.40;99.90;;;;;;6182605;23;20337;-86
2021/10/29 18:18:58;;;;;;;;;;;14.40;99.90;;;;;;6183948;23;19935;-86
2021/10/29 18:21:24;;;;;;;;;;;14.40;99.90;;;;;;6184511;23;19912;-86
2021/10/29 18:23:54;;;;;;;;;;;14.40;99.90;;;;;;6183148;23;19918;-86
2021/10/29 18:26:23;;;;;;;;;;;14.30;99.90;;;;;;6183051;23;20364;-87
2021/10/29 18:28:51;;;;;;;;;;;14.30;99.90;;;;;;6183116;23;19971;-85
2021/10/29 18:31:17;;;;;;;;;;;14.30;99.90;;;;;;6182852;23;19963;-86
2021/10/29 18:33:43;;;;;;;;;;;14.30;99.90;;;;;;6182075;23;19900;-86
2021/10/29 18:36:08;;;;;;;;;;;14.30;99.90;;;;;;6182970;23;19948;-86
2021/10/29 18:38:34;;;;;;;;;;;14.30;99.90;;;;;;6183156;23;19900;-85
2021/10/29 18:40:59;;;;;;;;;;;14.20;99.90;;;;;;6181293;23;19900;-86
2021/10/29 18:43:25;;;;;;;;;;;14.20;99.90;;;;;;6182943;23;19906;-86
2021/10/29 18:45:51;;;;;;;;;;;14.20;99.90;;;;;;6182416;23;19978;-86
2021/10/29 18:48:17;;;;;;;;;;;14.20;99.90;;;;;;6182897;23;19907;-86
2021/10/29 18:50:42;;;;;;;;;;;14.20;99.90;;;;;;6182618;23;19936;-86
2021/10/29 18:53:08;;;;;;;;;;;14.20;99.90;;;;;;6182990;23;19975;-86
2021/10/29 18:55:34;;;;;;;;;;;14.20;99.90;;;;;;6182921;23;19915;-86